Latest Weather Observations for Ulladulla

IDN60901

Issued at 1:25 pm EST Friday 25 July 2014 (issued every 10 minutes, with the page automatically refreshed every 10 minutes)

About weather observations | Map of Canberra area stations | Latest observations for Canberra area | Other Formats
Station Details ID: 069138 Name: ULLADULLA AWS Lat: -35.36 Lon: 150.48 Height: 35.7 m
Data from the previous 72 hours. | See also: Recent months at Ulladulla
Date/Time
EST
Tmp

°C
App
Tmp
°C
Dew
Point
°C
Rel
Hum
%
Delta-T

°C
Wind Press
QNH
hPa
Press
MSL
hPa
Rain
since
9 am
mm
Dir
 
Spd
km/h
Gust
km/h
Spd
kts
Gust
kts
25/01:00pm 18.7 17.8 11.5 63 3.9 ENE 7 13 4 7 1018.1 1018.1 0.0
25/12:30pm 19.5 18.0 10.5 56 4.9 ESE 9 13 5 7 1018.5 - 0.0
25/12:00pm 20.3 19.2 9.8 51 5.6 NE 6 9 3 5 1018.8 1018.8 0.0
25/11:30am 19.6 18.5 9.8 53 5.2 NE 6 11 3 6 1019.4 - 0.0
25/11:00am 19.4 19.1 10.1 55 5.0 NNW 2 9 1 5 1019.6 1019.6 0.0
25/10:30am 18.8 17.8 10.4 58 4.5 NNW 6 9 3 5 1020.0 - 0.0
25/10:00am 16.4 14.8 8.9 61 3.8 N 7 11 4 6 1020.1 1020.1 0.0
25/09:30am 15.4 12.6 8.4 63 3.5 NNW 13 20 7 11 1020.0 - 0.0
25/09:00am 13.5 12.1 9.0 74 2.3 N 6 15 3 8 1020.1 1020.1 0.0
25/08:30am 13.4 12.4 8.9 74 2.3 NNE 4 7 2 4 1020.1 - 0.0
25/08:00am 12.9 11.7 8.2 73 2.3 N 4 6 2 3 1019.9 1019.9 0.0
25/07:30am 11.5 9.8 7.6 77 1.9 N 6 7 3 4 1019.5 - 0.0
25/07:00am 10.7 8.9 7.0 78 1.8 N 6 7 3 4 1019.3 1019.3 0.0
25/06:30am 11.5 9.8 7.6 77 1.9 N 6 7 3 4 1019.0 - 0.0
25/06:00am 11.7 10.0 8.2 79 1.7 N 7 9 4 5 1019.0 1019.0 0.0
25/05:30am 12.8 11.5 9.1 78 1.9 N 6 9 3 5 1018.6 - 0.0
25/05:00am 13.4 11.9 9.1 75 2.2 N 7 11 4 6 1018.2 1018.2 0.0
25/04:30am 13.7 11.8 9.0 73 2.4 N 9 15 5 8 1018.4 - 0.0
25/04:00am 14.0 11.6 8.8 71 2.6 N 11 15 6 8 1018.3 1018.3 0.0
25/03:30am 13.9 11.5 8.5 70 2.7 N 11 15 6 8 1018.4 - 0.0
25/03:00am 13.7 11.7 8.7 72 2.5 N 9 15 5 8 1018.5 1018.5 0.0
25/02:30am 13.3 11.1 8.0 70 2.6 N 9 13 5 7 1018.7 - 0.0
25/02:00am 14.4 12.1 9.0 70 2.7 N 11 15 6 8 1018.7 1018.7 0.0
25/01:30am 14.9 13.4 9.3 69 2.9 N 7 13 4 7 1018.8 - 0.0
25/01:00am 14.9 12.5 8.8 67 3.1 N 11 19 6 10 1018.7 1018.7 0.0
25/12:30am 14.6 12.8 8.1 65 3.3 N 7 15 4 8 1018.7 - 0.0
25/12:00am 14.3 12.3 8.5 68 2.9 N 9 15 5 8 1018.7 1018.7 0.0
 
Date/Time
EST
Tmp

°C
App
Tmp
°C
Dew
Point
°C
Rel
Hum
%
Delta-T

°C
Wind Press
QNH
hPa
Press
MSL
hPa
Rain
since
9 am
mm
Dir
 
Spd
km/h
Gust
km/h
Spd
kts
Gust
kts
24/11:30pm 13.3 12.1 9.4 77 2.0 N 6 9 3 5 1019.3 - 0.0
24/11:00pm 12.6 11.6 8.9 78 1.9 N 4 11 2 6 1019.5 1019.5 0.0
24/10:30pm 12.4 12.4 9.8 84 1.3 CALM 0 0 0 0 1019.4 - 0.0
24/10:00pm 12.7 12.8 10.1 84 1.3 CALM 0 0 0 0 1019.3 1019.3 0.0
24/09:30pm 13.4 12.9 10.8 84 1.4 N 4 7 2 4 1019.3 - 0.0
24/09:00pm 14.0 13.2 11.0 82 1.6 N 6 9 3 5 1019.2 1019.2 0.0
24/08:30pm 14.1 13.1 10.9 81 1.7 N 7 11 4 6 1019.2 - 0.0
24/08:00pm 14.1 13.2 10.7 80 1.8 N 6 7 3 4 1019.0 1019.0 0.0
24/07:30pm 14.0 13.0 10.4 79 1.9 N 6 7 3 4 1018.9 - 0.0
24/07:00pm 14.5 13.5 11.1 80 1.8 N 7 11 4 6 1018.6 1018.6 0.0
24/06:30pm 14.5 13.1 10.9 79 1.9 N 9 13 5 7 1018.5 - 0.0
24/06:00pm 15.1 13.3 10.9 76 2.2 N 11 17 6 9 1018.3 1018.3 0.0
24/05:30pm 15.4 14.1 11.2 76 2.2 N 9 15 5 8 1018.4 - 0.0
24/05:00pm 15.4 13.9 10.6 73 2.5 N 9 15 5 8 1018.2 1018.2 0.0
24/04:30pm 15.6 14.0 10.2 70 2.8 N 9 15 5 8 1018.2 - 0.0
24/04:00pm 15.8 14.7 10.8 72 2.7 NNE 7 13 4 7 1017.9 1017.9 0.0
24/03:30pm 16.0 13.0 10.7 71 2.8 NE 17 24 9 13 1017.5 - 0.0
24/03:00pm 16.0 13.0 10.5 70 2.9 NE 17 20 9 11 1017.5 1017.5 0.0
24/02:30pm 15.7 13.0 10.5 71 2.8 NE 15 20 8 11 1017.9 - 0.0
24/02:00pm 16.5 13.5 10.8 69 3.0 NNE 17 22 9 12 1018.3 1018.3 0.0
24/01:30pm 15.6 12.8 9.9 69 3.0 NE 15 22 8 12 1018.5 - 0.0
24/01:00pm 15.6 14.0 10.2 70 2.8 NE 9 17 5 9 1019.0 1019.0 0.0
24/12:30pm 15.9 14.8 10.7 71 2.8 NNE 7 13 4 7 1019.5 - 0.0
24/12:00pm 15.0 11.4 9.8 71 2.7 NE 19 24 10 13 1019.9 1019.9 0.0
24/11:30am 15.3 13.2 9.7 69 2.9 NNE 11 17 6 9 1020.6 - 0.0
24/11:00am 14.9 12.4 9.7 71 2.7 NNE 13 22 7 12 1021.0 1021.1 0.0
24/10:30am 14.8 12.2 9.4 70 2.8 N 13 20 7 11 1021.4 - 0.0
24/10:00am 14.4 12.5 9.2 71 2.6 N 9 17 5 9 1021.7 1021.8 0.0
24/09:30am 13.9 12.5 9.5 75 2.3 N 7 13 4 7 1021.6 - 0.0
24/09:00am 12.4 10.5 8.9 79 1.7 N 9 15 5 8 1021.3 1021.4 0.0
24/08:30am 11.6 10.4 9.5 87 1.1 N 6 13 3 7 1021.1 - 0.0
24/08:00am 10.7 9.4 9.1 90 0.8 N 6 11 3 6 1021.0 1021.1 0.0
24/07:30am 10.3 9.2 8.6 89 0.8 NNE 4 6 2 3 1021.3 - 0.0
24/07:00am 9.6 8.3 7.7 88 0.9 N 4 4 2 2 1021.3 1021.4 0.0
24/06:30am 9.3 8.7 7.3 87 0.9 CALM 0 0 0 0 1021.1 - 0.0
24/06:00am 9.0 8.3 6.8 86 1.0 CALM 0 4 0 2 1020.9 1021.0 0.0
24/05:30am 9.2 8.1 6.8 85 1.1 NNW 2 6 1 3 1020.5 - 0.0
24/05:00am 9.3 7.8 6.7 84 1.2 NW 4 7 2 4 1020.4 1020.4 0.0
24/04:30am 10.1 8.1 7.3 83 1.3 NNW 7 9 4 5 1020.3 - 0.0
24/04:00am 10.8 8.9 7.5 80 1.6 NNW 7 11 4 6 1020.2 1020.2 0.0
24/03:30am 10.6 8.4 7.8 83 1.4 NNW 9 15 5 8 1020.3 - 0.0
24/03:00am 10.3 8.4 7.7 84 1.2 NNW 7 11 4 6 1020.2 1020.2 0.0
24/02:30am 9.8 8.1 7.4 85 1.1 NNW 6 7 3 4 1020.4 - 0.0
24/02:00am 9.9 8.2 7.7 86 1.1 NNW 6 9 3 5 1020.6 1020.6 0.0
24/01:30am 9.3 7.4 7.7 90 0.8 NNW 7 9 4 5 1020.8 - 0.0
24/01:00am 8.7 6.9 7.0 89 0.8 N 6 6 3 3 1021.1 1021.2 0.0
24/12:30am 9.9 8.2 7.7 86 1.1 N 6 7 3 4 1021.5 - 0.0
24/12:00am 10.5 9.4 8.4 87 1.0 N 4 6 2 3 1022.0 1022.1 0.0
 
Date/Time
EST
Tmp

°C
App
Tmp
°C
Dew
Point
°C
Rel
Hum
%
Delta-T

°C
Wind Press
QNH
hPa
Press
MSL
hPa
Rain
since
9 am
mm
Dir
 
Spd
km/h
Gust
km/h
Spd
kts
Gust
kts
23/11:30pm 10.8 9.7 8.4 85 1.2 N 4 6 2 3 1022.2 - 0.0
23/11:00pm 11.3 10.2 8.5 83 1.4 N 4 6 2 3 1022.5 1022.6 0.0
23/10:30pm 11.3 10.1 8.2 81 1.5 NNW 4 6 2 3 1022.6 - 0.0
23/10:00pm 11.6 10.1 8.5 81 1.5 NNW 6 9 3 5 1022.7 1022.8 0.0
23/09:30pm 11.3 9.6 8.5 83 1.4 NNW 7 9 4 5 1022.7 - 0.0
23/09:00pm 11.2 9.7 8.4 83 1.4 NNW 6 9 3 5 1022.6 1022.7 0.0
23/08:30pm 11.3 9.9 8.7 84 1.3 NNW 6 9 3 5 1022.7 - 0.0
23/08:00pm 11.5 10.1 8.7 83 1.4 NNW 6 9 3 5 1022.6 1022.7 0.0
23/07:30pm 12.0 10.6 8.7 80 1.6 N 6 7 3 4 1022.5 - 0.0
23/07:00pm 13.0 12.1 9.3 78 1.9 N 4 7 2 4 1022.3 1022.4 0.0
23/06:30pm 14.2 12.4 9.4 73 2.5 N 9 17 5 9 1022.2 - 0.0
23/06:00pm 14.4 12.3 9.6 73 2.5 NE 11 17 6 9 1022.1 1022.2 0.0
23/05:30pm 14.3 12.5 9.5 73 2.5 NNE 9 17 5 9 1022.0 - 0.0
23/05:00pm 14.0 12.8 9.6 75 2.3 NE 6 11 3 6 1021.8 1021.9 0.0
23/04:30pm 14.3 13.1 9.7 74 2.4 NE 6 11 3 6 1021.7 - 0.0
23/04:00pm 14.6 13.4 9.4 71 2.7 ENE 6 9 3 5 1021.5 1021.6 0.0
23/03:30pm 15.4 14.2 9.7 69 3.0 ESE 6 9 3 5 1021.5 - 0.0
23/03:00pm 15.4 14.0 9.7 69 3.0 E 7 11 4 6 1021.6 1021.7 0.0
23/02:30pm 15.6 14.1 9.1 65 3.3 ESE 7 11 4 6 1021.5 - 0.0
23/02:00pm 15.5 13.9 8.7 64 3.5 ESE 7 11 4 6 1021.7 1021.8 0.0
23/01:30pm 15.7 14.4 10.0 69 3.0 E 7 11 4 6 1022.0 - 0.0
23/01:00pm 15.1 13.6 9.0 67 3.1 ENE 7 13 4 7 1022.3 1022.4 0.0
23/12:30pm 15.4 13.6 9.5 68 3.1 ENE 9 13 5 7 1022.7 - 0.0
23/12:00pm 15.3 13.9 9.4 68 3.0 NNE 7 13 4 7 1023.5 1023.6 0.0
23/11:30am 15.6 14.4 9.7 68 3.1 NNE 6 9 3 5 1024.1 - 0.0
23/11:00am 14.6 13.7 9.2 70 2.7 S 4 7 2 4 1024.7 1024.8 0.0
23/10:30am 14.8 14.0 9.6 71 2.7 S 4 6 2 3 1025.0 - 0.0
23/10:00am 14.9 14.3 9.1 68 3.0 N 2 4 1 2 1025.3 1025.4 0.0
23/09:30am 14.4 13.3 8.4 67 3.0 W 4 7 2 4 1025.2 - 0.0
23/09:00am 14.0 12.9 8.6 70 2.7 W 4 7 2 4 1025.1 1025.2 0.0
23/08:30am 12.5 11.0 8.6 77 1.9 W 6 7 3 4 1024.9 - 0.0
23/08:00am 10.6 8.8 8.0 84 1.3 W 7 11 4 6 1024.7 1024.8 0.0
23/07:30am 8.7 6.3 6.8 88 0.9 W 9 11 5 6 1024.7 - 0.0
23/07:00am 8.0 5.4 6.1 88 0.9 W 9 11 5 6 1024.4 1024.5 0.0
23/06:30am 8.1 5.9 6.2 88 0.9 WSW 7 9 4 5 1024.0 - 0.0
23/06:00am 8.3 6.1 6.4 88 0.9 WSW 7 9 4 5 1024.0 1024.1 0.0
23/05:30am 8.3 6.1 6.3 87 0.9 W 7 9 4 5 1023.7 - 0.0
23/05:00am 8.4 6.2 6.4 87 0.9 WSW 7 9 4 5 1023.3 1023.4 0.0
23/04:30am 8.2 6.0 6.0 86 1.0 W 7 9 4 5 1023.1 - 0.0
23/04:00am 8.4 6.2 6.0 85 1.1 W 7 9 4 5 1023.1 1023.2 0.0
23/03:30am 9.0 7.0 6.4 84 1.2 W 6 7 3 4 1023.1 - 0.0
23/03:00am 9.1 6.9 6.4 83 1.2 W 7 7 4 4 1023.3 1023.4 0.0
23/02:30am 9.5 7.1 6.8 83 1.3 W 9 11 5 6 1023.6 - 0.0
23/02:00am 9.9 7.9 7.0 82 1.4 W 7 9 4 5 1023.7 1023.8 0.0
23/01:30am 10.4 8.5 7.5 82 1.4 W 7 9 4 5 1023.9 - 0.0
23/01:00am 10.2 8.3 7.6 84 1.2 W 7 11 4 6 1024.1 1024.2 0.0
23/12:30am 10.3 8.4 7.5 83 1.3 W 7 11 4 6 1024.1 - 0.0
23/12:00am 10.5 8.3 7.7 83 1.3 W 9 15 5 8 1024.4 1024.5 0.0
 
Date/Time
EST
Tmp

°C
App
Tmp
°C
Dew
Point
°C
Rel
Hum
%
Delta-T

°C
Wind Press
QNH
hPa
Press
MSL
hPa
Rain
since
9 am
mm
Dir
 
Spd
km/h
Gust
km/h
Spd
kts
Gust
kts
22/11:30pm 10.5 8.3 7.9 84 1.3 WSW 9 13 5 7 1024.4 - 0.0
22/11:00pm 10.7 8.6 8.1 84 1.3 WSW 9 11 5 6 1024.4 1024.5 0.0
22/10:30pm 11.0 8.9 8.4 84 1.3 W 9 13 5 7 1024.6 - 0.0
22/10:00pm 11.2 9.2 8.6 84 1.3 W 9 11 5 6 1024.5 1024.6 0.0
22/09:30pm 10.9 9.1 8.0 82 1.4 WSW 7 9 4 5 1024.4 - 0.0
22/09:00pm 11.1 9.4 8.3 83 1.4 WSW 7 9 4 5 1024.3 1024.4 0.0
22/08:30pm 11.4 9.7 8.3 81 1.5 WSW 7 11 4 6 1024.3 - 0.0
22/08:00pm 11.9 9.9 8.7 81 1.6 SW 9 11 5 6 1024.4 1024.5 0.0
22/07:30pm 11.7 10.3 8.7 82 1.5 SW 6 9 3 5 1024.4 - 0.0
22/07:00pm 12.2 10.6 8.9 80 1.6 WSW 7 9 4 5 1024.3 1024.4 0.0
22/06:30pm 13.3 12.1 9.4 77 2.0 WSW 6 11 3 6 1024.2 - 0.0
22/06:00pm 14.2 12.2 10.2 77 2.1 S 11 15 6 8 1023.9 1024.0 0.0
22/05:30pm 13.8 12.1 9.8 77 2.1 S 9 13 5 7 1023.6 - 0.0
22/05:00pm 13.8 12.0 9.6 76 2.1 S 9 13 5 7 1023.3 1023.4 0.0
22/04:30pm 14.3 13.0 9.9 75 2.3 S 7 15 4 8 1023.2 - 0.0
22/04:00pm 14.4 12.3 9.6 73 2.5 S 11 15 6 8 1022.9 1023.0 0.0
22/03:30pm 14.8 12.7 9.6 71 2.7 SSE 11 15 6 8 1022.7 - 0.0
22/03:00pm 14.8 12.6 9.2 69 2.9 S 11 17 6 9 1022.6 1022.7 0.0
22/02:30pm 15.0 12.8 9.4 69 2.9 S 11 15 6 8 1022.7 - 0.0
22/02:00pm 15.1 12.9 9.2 68 3.0 S 11 17 6 9 1022.7 1022.8 0.0
22/01:30pm 15.3 13.2 9.7 69 2.9 S 11 17 6 9 1022.9 - 0.0

Latest Capital City Observations: Canberra | Sydney | Melbourne | Brisbane | Adelaide | Perth | Hobart | Darwin

Other Formats:

Comma delimited format used in spreadsheet applications
http://www.bom.gov.au/fwo/IDN60903/IDN60903.94938.axf

JavaScript Object Notation format (JSON) in row-major order
http://www.bom.gov.au/fwo/IDN60903/IDN60903.94938.json